首页
METAR-TAF:

METAR-TAF

机场 :

关西国际机场, 日本

纬度: 34-25N, 经度: 135-15E, 海拔: 5米

当前天气观测

该预报发布于21分钟前的15:46 UTC
风速10节,风向东北,在东转东北之间变化
温度 12°C
湿度 62%
气压 1018 hPa
能见度10公里或以上

METAR: RJBB 081546Z AUTO 04010KT 360V070 9999 NCD 12/05 Q1018 RMK A3009

时间: 01:07 (16:07 UTC)

预报

该预报发布于3小时和35分钟前的12:32 UTC
预报有效从08日的 12点(UTC)到 09日的 18点(UTC)
风速11节,风向
能见度10公里或以上
少量云层高于2500英尺
成为
从 09日的 03点(UTC)到 09日的 06点(UTC)
风速5节,风向西
成为
从 09日的 09点(UTC)到 09日的 12点(UTC)
风速12节,风向

TAF: RJBB 081232Z 0812/0918 35011KT 9999 FEW025 BECMG 0903/0906 28005KT BECMG 0909/0912 01012KT

超过4000个机场的气象观测和天气预报(METAR&TAF报告)。

可查询的气象台以黄色和红色小点在地图上表示。

将鼠标移到小点上方,可查看气象台名称。

然后点击查看天气观测和预报。

如需切换地图:点击带黑十字的绿色按钮放大地图;点击带横线的绿色按钮缩小地图;或者点击绿色箭头查看邻近地区的地图。


METAR-TAF: